sensor_id;sensor_type;location;lat;lon;timestamp;P1;durP1;ratioP1;P2;durP2;ratioP2
51174;SDS011;37240;50.104;20.010;2024-03-06T00:02:36;78.07;;;29.63;;
51174;SDS011;37240;50.104;20.010;2024-03-06T00:07:37;86.93;;;33.25;;
51174;SDS011;37240;50.104;20.010;2024-03-06T00:12:37;91.93;;;32.30;;
51174;SDS011;37240;50.104;20.010;2024-03-06T00:17:38;80.22;;;31.75;;
51174;SDS011;37240;50.104;20.010;2024-03-06T00:22:38;89.38;;;33.15;;
51174;SDS011;37240;50.104;20.010;2024-03-06T00:27:39;80.63;;;30.50;;
51174;SDS011;37240;50.104;20.010;2024-03-06T00:32:40;78.80;;;29.58;;
51174;SDS011;37240;50.104;20.010;2024-03-06T00:37:40;76.30;;;29.77;;
51174;SDS011;37240;50.104;20.010;2024-03-06T00:42:41;77.82;;;31.00;;
51174;SDS011;37240;50.104;20.010;2024-03-06T00:47:41;77.07;;;30.92;;
51174;SDS011;37240;50.104;20.010;2024-03-06T00:52:42;84.95;;;31.40;;
51174;SDS011;37240;50.104;20.010;2024-03-06T00:57:43;85.82;;;30.85;;
51174;SDS011;37240;50.104;20.010;2024-03-06T01:02:43;79.10;;;30.10;;
51174;SDS011;37240;50.104;20.010;2024-03-06T01:07:44;82.00;;;29.98;;
51174;SDS011;37240;50.104;20.010;2024-03-06T01:12:44;77.80;;;28.42;;
51174;SDS011;37240;50.104;20.010;2024-03-06T01:17:46;77.72;;;30.63;;
51174;SDS011;37240;50.104;20.010;2024-03-06T01:22:47;83.68;;;30.48;;
51174;SDS011;37240;50.104;20.010;2024-03-06T01:27:48;81.30;;;29.60;;
51174;SDS011;37240;50.104;20.010;2024-03-06T01:32:48;77.20;;;28.02;;
51174;SDS011;37240;50.104;20.010;2024-03-06T01:37:49;74.85;;;26.90;;
51174;SDS011;37240;50.104;20.010;2024-03-06T01:42:49;76.03;;;29.35;;
51174;SDS011;37240;50.104;20.010;2024-03-06T01:47:50;82.30;;;29.13;;
51174;SDS011;37240;50.104;20.010;2024-03-06T01:52:51;68.78;;;25.75;;
51174;SDS011;37240;50.104;20.010;2024-03-06T01:57:51;62.75;;;25.40;;
51174;SDS011;37240;50.104;20.010;2024-03-06T02:02:52;73.55;;;24.55;;
51174;SDS011;37240;50.104;20.010;2024-03-06T02:07:53;70.05;;;24.65;;
51174;SDS011;37240;50.104;20.010;2024-03-06T02:12:54;57.45;;;23.15;;
51174;SDS011;37240;50.104;20.010;2024-03-06T02:17:54;68.07;;;25.23;;
51174;SDS011;37240;50.104;20.010;2024-03-06T02:22:55;54.70;;;22.35;;
51174;SDS011;37240;50.104;20.010;2024-03-06T02:27:56;51.45;;;20.38;;
51174;SDS011;37240;50.104;20.010;2024-03-06T02:32:56;58.58;;;22.00;;
51174;SDS011;37240;50.104;20.010;2024-03-06T02:37:59;59.35;;;22.85;;
51174;SDS011;37240;50.104;20.010;2024-03-06T02:42:59;60.30;;;24.63;;
51174;SDS011;37240;50.104;20.010;2024-03-06T02:48:00;58.58;;;21.75;;
51174;SDS011;37240;50.104;20.010;2024-03-06T02:53:00;61.05;;;23.80;;
51174;SDS011;37240;50.104;20.010;2024-03-06T02:58:02;55.67;;;21.70;;
51174;SDS011;37240;50.104;20.010;2024-03-06T03:03:02;57.90;;;23.50;;
51174;SDS011;37240;50.104;20.010;2024-03-06T03:08:03;61.42;;;24.52;;
51174;SDS011;37240;50.104;20.010;2024-03-06T03:13:04;61.72;;;22.90;;
51174;SDS011;37240;50.104;20.010;2024-03-06T03:18:04;64.28;;;24.90;;
51174;SDS011;37240;50.104;20.010;2024-03-06T03:23:05;60.60;;;23.45;;
51174;SDS011;37240;50.104;20.010;2024-03-06T03:28:05;62.30;;;23.95;;
51174;SDS011;37240;50.104;20.010;2024-03-06T03:33:06;58.95;;;23.08;;
51174;SDS011;37240;50.104;20.010;2024-03-06T03:38:07;62.10;;;23.58;;
51174;SDS011;37240;50.104;20.010;2024-03-06T03:43:07;61.03;;;24.77;;
51174;SDS011;37240;50.104;20.010;2024-03-06T03:48:08;61.85;;;22.77;;
51174;SDS011;37240;50.104;20.010;2024-03-06T03:53:08;64.60;;;25.15;;
51174;SDS011;37240;50.104;20.010;2024-03-06T03:58:09;71.38;;;25.20;;
51174;SDS011;37240;50.104;20.010;2024-03-06T04:03:09;61.25;;;25.08;;
51174;SDS011;37240;50.104;20.010;2024-03-06T04:08:10;63.63;;;25.17;;
51174;SDS011;37240;50.104;20.010;2024-03-06T04:13:11;70.03;;;27.80;;
51174;SDS011;37240;50.104;20.010;2024-03-06T04:18:11;69.25;;;26.67;;
51174;SDS011;37240;50.104;20.010;2024-03-06T04:23:12;58.78;;;23.52;;
51174;SDS011;37240;50.104;20.010;2024-03-06T04:28:13;63.10;;;23.52;;
51174;SDS011;37240;50.104;20.010;2024-03-06T04:33:13;55.35;;;22.88;;
51174;SDS011;37240;50.104;20.010;2024-03-06T04:38:14;64.28;;;23.85;;
51174;SDS011;37240;50.104;20.010;2024-03-06T04:43:14;59.90;;;22.00;;
51174;SDS011;37240;50.104;20.010;2024-03-06T04:48:15;69.88;;;27.10;;
51174;SDS011;37240;50.104;20.010;2024-03-06T04:53:15;59.95;;;22.42;;
51174;SDS011;37240;50.104;20.010;2024-03-06T04:58:16;46.38;;;19.88;;
51174;SDS011;37240;50.104;20.010;2024-03-06T05:03:17;51.50;;;20.05;;
51174;SDS011;37240;50.104;20.010;2024-03-06T05:08:17;56.63;;;23.35;;
51174;SDS011;37240;50.104;20.010;2024-03-06T05:13:18;52.90;;;21.08;;
51174;SDS011;37240;50.104;20.010;2024-03-06T05:18:18;51.08;;;20.40;;
51174;SDS011;37240;50.104;20.010;2024-03-06T05:23:19;53.28;;;21.42;;
51174;SDS011;37240;50.104;20.010;2024-03-06T05:28:19;51.17;;;20.15;;
51174;SDS011;37240;50.104;20.010;2024-03-06T05:33:20;50.25;;;19.88;;
51174;SDS011;37240;50.104;20.010;2024-03-06T05:38:20;46.17;;;20.15;;
51174;SDS011;37240;50.104;20.010;2024-03-06T05:43:21;58.67;;;22.15;;
51174;SDS011;37240;50.104;20.010;2024-03-06T05:48:21;55.63;;;21.65;;
51174;SDS011;37240;50.104;20.010;2024-03-06T05:53:22;65.45;;;24.23;;
51174;SDS011;37240;50.104;20.010;2024-03-06T05:58:22;57.35;;;21.40;;
51174;SDS011;37240;50.104;20.010;2024-03-06T06:03:23;52.70;;;20.90;;
51174;SDS011;37240;50.104;20.010;2024-03-06T06:08:24;61.35;;;23.77;;
51174;SDS011;37240;50.104;20.010;2024-03-06T06:13:24;57.33;;;23.42;;
51174;SDS011;37240;50.104;20.010;2024-03-06T06:18:25;54.80;;;21.85;;
51174;SDS011;37240;50.104;20.010;2024-03-06T06:23:25;51.92;;;21.80;;
51174;SDS011;37240;50.104;20.010;2024-03-06T06:28:26;49.05;;;20.85;;
51174;SDS011;37240;50.104;20.010;2024-03-06T06:33:26;49.92;;;19.48;;
51174;SDS011;37240;50.104;20.010;2024-03-06T06:38:27;39.72;;;17.90;;
51174;SDS011;37240;50.104;20.010;2024-03-06T06:43:27;40.65;;;18.20;;
51174;SDS011;37240;50.104;20.010;2024-03-06T06:48:28;46.50;;;20.38;;
51174;SDS011;37240;50.104;20.010;2024-03-06T06:53:29;49.28;;;20.73;;
51174;SDS011;37240;50.104;20.010;2024-03-06T06:58:30;55.60;;;22.38;;
51174;SDS011;37240;50.104;20.010;2024-03-06T07:03:31;57.80;;;22.75;;
51174;SDS011;37240;50.104;20.010;2024-03-06T07:08:31;59.33;;;23.40;;
51174;SDS011;37240;50.104;20.010;2024-03-06T07:13:32;60.83;;;22.90;;
51174;SDS011;37240;50.104;20.010;2024-03-06T07:18:32;58.90;;;22.08;;
51174;SDS011;37240;50.104;20.010;2024-03-06T07:23:33;53.70;;;20.35;;
51174;SDS011;37240;50.104;20.010;2024-03-06T07:28:33;64.05;;;23.42;;
51174;SDS011;37240;50.104;20.010;2024-03-06T07:33:34;56.72;;;22.45;;
51174;SDS011;37240;50.104;20.010;2024-03-06T07:38:35;52.88;;;20.90;;
51174;SDS011;37240;50.104;20.010;2024-03-06T07:43:35;54.97;;;21.67;;
51174;SDS011;37240;50.104;20.010;2024-03-06T07:48:42;60.40;;;22.60;;
51174;SDS011;37240;50.104;20.010;2024-03-06T07:58:43;58.55;;;23.13;;
51174;SDS011;37240;50.104;20.010;2024-03-06T08:03:43;63.67;;;23.40;;
51174;SDS011;37240;50.104;20.010;2024-03-06T08:08:44;55.42;;;22.73;;
51174;SDS011;37240;50.104;20.010;2024-03-06T08:13:45;58.78;;;24.88;;
51174;SDS011;37240;50.104;20.010;2024-03-06T08:18:45;59.90;;;24.42;;
51174;SDS011;37240;50.104;20.010;2024-03-06T08:23:46;59.92;;;23.08;;
51174;SDS011;37240;50.104;20.010;2024-03-06T08:28:46;58.22;;;23.30;;
51174;SDS011;37240;50.104;20.010;2024-03-06T08:33:47;59.42;;;22.88;;
51174;SDS011;37240;50.104;20.010;2024-03-06T08:38:48;65.03;;;26.65;;
51174;SDS011;37240;50.104;20.010;2024-03-06T08:43:48;55.80;;;22.30;;
51174;SDS011;37240;50.104;20.010;2024-03-06T08:48:49;58.38;;;22.50;;
51174;SDS011;37240;50.104;20.010;2024-03-06T08:53:49;49.72;;;20.08;;
51174;SDS011;37240;50.104;20.010;2024-03-06T08:58:50;59.50;;;23.45;;
51174;SDS011;37240;50.104;20.010;2024-03-06T09:03:50;54.08;;;22.88;;
51174;SDS011;37240;50.104;20.010;2024-03-06T09:08:51;56.97;;;22.60;;
51174;SDS011;37240;50.104;20.010;2024-03-06T09:13:52;55.70;;;21.30;;
51174;SDS011;37240;50.104;20.010;2024-03-06T09:18:52;61.72;;;24.27;;
51174;SDS011;37240;50.104;20.010;2024-03-06T09:23:53;51.92;;;21.15;;
51174;SDS011;37240;50.104;20.010;2024-03-06T09:28:53;62.70;;;24.50;;
51174;SDS011;37240;50.104;20.010;2024-03-06T09:33:54;78.47;;;27.25;;
51174;SDS011;37240;50.104;20.010;2024-03-06T09:38:55;65.32;;;25.30;;
51174;SDS011;37240;50.104;20.010;2024-03-06T09:43:55;53.72;;;23.30;;
51174;SDS011;37240;50.104;20.010;2024-03-06T09:48:56;49.60;;;20.85;;
51174;SDS011;37240;50.104;20.010;2024-03-06T09:53:58;56.47;;;24.65;;
51174;SDS011;37240;50.104;20.010;2024-03-06T09:59:00;56.22;;;22.10;;
51174;SDS011;37240;50.104;20.010;2024-03-06T10:04:16;50.35;;;21.25;;
51174;SDS011;37240;50.104;20.010;2024-03-06T10:09:27;59.93;;;22.00;;
51174;SDS011;37240;50.104;20.010;2024-03-06T10:14:27;56.90;;;21.63;;
51174;SDS011;37240;50.104;20.010;2024-03-06T10:19:28;56.47;;;23.00;;
51174;SDS011;37240;50.104;20.010;2024-03-06T10:24:29;53.70;;;22.17;;
51174;SDS011;37240;50.104;20.010;2024-03-06T10:29:30;68.93;;;25.80;;
51174;SDS011;37240;50.104;20.010;2024-03-06T10:34:30;55.38;;;22.90;;
51174;SDS011;37240;50.104;20.010;2024-03-06T10:39:34;56.85;;;24.20;;
51174;SDS011;37240;50.104;20.010;2024-03-06T10:44:40;58.63;;;24.13;;
51174;SDS011;37240;50.104;20.010;2024-03-06T10:49:49;65.25;;;24.58;;
51174;SDS011;37240;50.104;20.010;2024-03-06T10:54:50;68.03;;;27.15;;
51174;SDS011;37240;50.104;20.010;2024-03-06T10:59:52;62.58;;;26.55;;
51174;SDS011;37240;50.104;20.010;2024-03-06T11:04:53;64.30;;;24.05;;
51174;SDS011;37240;50.104;20.010;2024-03-06T11:09:54;58.97;;;23.88;;
51174;SDS011;37240;50.104;20.010;2024-03-06T11:14:58;63.42;;;25.63;;
51174;SDS011;37240;50.104;20.010;2024-03-06T11:25:00;64.20;;;25.88;;
51174;SDS011;37240;50.104;20.010;2024-03-06T11:30:07;68.57;;;27.17;;
51174;SDS011;37240;50.104;20.010;2024-03-06T11:35:09;65.13;;;26.50;;
51174;SDS011;37240;50.104;20.010;2024-03-06T11:40:12;65.60;;;24.80;;
51174;SDS011;37240;50.104;20.010;2024-03-06T11:45:13;68.15;;;26.27;;
51174;SDS011;37240;50.104;20.010;2024-03-06T11:50:16;92.85;;;38.78;;
51174;SDS011;37240;50.104;20.010;2024-03-06T11:55:17;76.95;;;30.83;;
51174;SDS011;37240;50.104;20.010;2024-03-06T12:00:17;67.10;;;27.20;;
51174;SDS011;37240;50.104;20.010;2024-03-06T12:05:18;60.13;;;24.13;;
51174;SDS011;37240;50.104;20.010;2024-03-06T12:10:19;67.03;;;26.98;;
51174;SDS011;37240;50.104;20.010;2024-03-06T12:15:20;61.65;;;25.83;;
51174;SDS011;37240;50.104;20.010;2024-03-06T12:20:20;67.32;;;27.88;;
51174;SDS011;37240;50.104;20.010;2024-03-06T12:25:21;67.60;;;27.42;;
51174;SDS011;37240;50.104;20.010;2024-03-06T12:30:26;70.25;;;27.90;;
51174;SDS011;37240;50.104;20.010;2024-03-06T12:35:26;67.00;;;28.08;;
51174;SDS011;37240;50.104;20.010;2024-03-06T12:40:27;61.08;;;25.38;;
51174;SDS011;37240;50.104;20.010;2024-03-06T12:45:28;65.07;;;26.52;;
51174;SDS011;37240;50.104;20.010;2024-03-06T12:50:28;64.07;;;27.23;;
51174;SDS011;37240;50.104;20.010;2024-03-06T12:55:29;58.10;;;25.73;;
51174;SDS011;37240;50.104;20.010;2024-03-06T13:00:29;70.32;;;27.90;;
51174;SDS011;37240;50.104;20.010;2024-03-06T13:05:30;64.80;;;27.05;;
51174;SDS011;37240;50.104;20.010;2024-03-06T13:10:30;70.13;;;28.05;;
51174;SDS011;37240;50.104;20.010;2024-03-06T13:15:31;59.08;;;25.73;;
51174;SDS011;37240;50.104;20.010;2024-03-06T13:20:34;64.20;;;26.10;;
51174;SDS011;37240;50.104;20.010;2024-03-06T13:25:35;63.95;;;26.10;;
51174;SDS011;37240;50.104;20.010;2024-03-06T13:30:35;58.28;;;25.38;;
51174;SDS011;37240;50.104;20.010;2024-03-06T13:35:36;61.97;;;25.75;;
51174;SDS011;37240;50.104;20.010;2024-03-06T13:40:36;72.35;;;31.30;;
51174;SDS011;37240;50.104;20.010;2024-03-06T13:45:37;60.50;;;26.75;;
51174;SDS011;37240;50.104;20.010;2024-03-06T13:50:38;60.08;;;25.13;;
51174;SDS011;37240;50.104;20.010;2024-03-06T13:55:38;59.10;;;25.33;;
51174;SDS011;37240;50.104;20.010;2024-03-06T14:00:39;63.25;;;24.83;;
51174;SDS011;37240;50.104;20.010;2024-03-06T14:05:39;48.15;;;20.50;;
51174;SDS011;37240;50.104;20.010;2024-03-06T14:10:40;50.50;;;21.30;;
51174;SDS011;37240;50.104;20.010;2024-03-06T14:15:41;42.10;;;17.08;;
51174;SDS011;37240;50.104;20.010;2024-03-06T14:20:41;56.10;;;18.60;;
51174;SDS011;37240;50.104;20.010;2024-03-06T14:25:42;35.33;;;16.08;;
51174;SDS011;37240;50.104;20.010;2024-03-06T14:30:42;39.50;;;17.48;;
51174;SDS011;37240;50.104;20.010;2024-03-06T14:35:43;38.88;;;17.00;;
51174;SDS011;37240;50.104;20.010;2024-03-06T14:40:43;48.33;;;19.60;;
51174;SDS011;37240;50.104;20.010;2024-03-06T14:45:47;40.42;;;17.40;;
51174;SDS011;37240;50.104;20.010;2024-03-06T14:50:48;47.25;;;18.77;;
51174;SDS011;37240;50.104;20.010;2024-03-06T14:55:48;47.50;;;18.88;;
51174;SDS011;37240;50.104;20.010;2024-03-06T15:00:49;46.47;;;19.42;;
51174;SDS011;37240;50.104;20.010;2024-03-06T15:05:50;39.80;;;17.95;;
51174;SDS011;37240;50.104;20.010;2024-03-06T15:10:52;49.08;;;20.45;;
51174;SDS011;37240;50.104;20.010;2024-03-06T15:15:53;47.65;;;19.65;;
51174;SDS011;37240;50.104;20.010;2024-03-06T15:20:53;39.83;;;18.63;;
51174;SDS011;37240;50.104;20.010;2024-03-06T15:25:54;51.30;;;20.15;;
51174;SDS011;37240;50.104;20.010;2024-03-06T15:30:54;59.47;;;22.73;;
51174;SDS011;37240;50.104;20.010;2024-03-06T15:35:55;53.28;;;20.83;;
51174;SDS011;37240;50.104;20.010;2024-03-06T15:40:56;57.22;;;21.85;;
51174;SDS011;37240;50.104;20.010;2024-03-06T15:45:56;48.80;;;19.23;;
51174;SDS011;37240;50.104;20.010;2024-03-06T15:50:57;57.08;;;21.38;;
51174;SDS011;37240;50.104;20.010;2024-03-06T15:55:57;49.42;;;20.30;;
51174;SDS011;37240;50.104;20.010;2024-03-06T16:00:58;65.15;;;25.02;;
51174;SDS011;37240;50.104;20.010;2024-03-06T16:05:58;60.22;;;26.35;;
51174;SDS011;37240;50.104;20.010;2024-03-06T16:10:59;58.33;;;25.45;;
51174;SDS011;37240;50.104;20.010;2024-03-06T16:16:00;55.22;;;23.38;;
51174;SDS011;37240;50.104;20.010;2024-03-06T16:21:00;57.92;;;25.25;;
51174;SDS011;37240;50.104;20.010;2024-03-06T16:26:01;53.38;;;23.92;;
51174;SDS011;37240;50.104;20.010;2024-03-06T16:31:01;61.97;;;26.75;;
51174;SDS011;37240;50.104;20.010;2024-03-06T16:36:02;51.10;;;23.02;;
51174;SDS011;37240;50.104;20.010;2024-03-06T16:41:03;61.90;;;24.52;;
51174;SDS011;37240;50.104;20.010;2024-03-06T16:46:04;58.97;;;24.38;;
51174;SDS011;37240;50.104;20.010;2024-03-06T16:51:05;56.83;;;25.02;;
51174;SDS011;37240;50.104;20.010;2024-03-06T16:56:05;56.65;;;24.25;;
51174;SDS011;37240;50.104;20.010;2024-03-06T17:01:06;60.28;;;25.73;;
51174;SDS011;37240;50.104;20.010;2024-03-06T17:06:06;64.22;;;26.02;;
51174;SDS011;37240;50.104;20.010;2024-03-06T17:11:08;66.05;;;24.08;;
51174;SDS011;37240;50.104;20.010;2024-03-06T17:16:09;48.03;;;20.73;;
51174;SDS011;37240;50.104;20.010;2024-03-06T17:21:09;49.33;;;21.02;;
51174;SDS011;37240;50.104;20.010;2024-03-06T17:26:10;52.55;;;21.15;;
51174;SDS011;37240;50.104;20.010;2024-03-06T17:31:10;38.67;;;17.17;;
51174;SDS011;37240;50.104;20.010;2024-03-06T17:36:11;39.10;;;16.67;;
51174;SDS011;37240;50.104;20.010;2024-03-06T17:41:12;27.17;;;12.27;;
51174;SDS011;37240;50.104;20.010;2024-03-06T17:46:13;20.05;;;10.90;;
51174;SDS011;37240;50.104;20.010;2024-03-06T17:51:14;21.60;;;10.10;;
51174;SDS011;37240;50.104;20.010;2024-03-06T17:56:15;21.98;;;11.15;;
51174;SDS011;37240;50.104;20.010;2024-03-06T18:01:15;22.85;;;10.80;;
51174;SDS011;37240;50.104;20.010;2024-03-06T18:06:18;20.02;;;10.63;;
51174;SDS011;37240;50.104;20.010;2024-03-06T18:11:21;13.18;;;8.00;;
51174;SDS011;37240;50.104;20.010;2024-03-06T18:16:22;12.88;;;6.85;;
51174;SDS011;37240;50.104;20.010;2024-03-06T18:21:23;12.13;;;8.05;;
51174;SDS011;37240;50.104;20.010;2024-03-06T18:26:23;17.80;;;9.02;;
51174;SDS011;37240;50.104;20.010;2024-03-06T18:31:24;12.40;;;7.80;;
51174;SDS011;37240;50.104;20.010;2024-03-06T18:36:26;11.60;;;7.45;;
51174;SDS011;37240;50.104;20.010;2024-03-06T18:41:27;11.20;;;7.00;;
51174;SDS011;37240;50.104;20.010;2024-03-06T18:46:28;17.50;;;8.80;;
51174;SDS011;37240;50.104;20.010;2024-03-06T18:51:28;11.95;;;7.95;;
51174;SDS011;37240;50.104;20.010;2024-03-06T18:56:31;11.20;;;6.70;;
51174;SDS011;37240;50.104;20.010;2024-03-06T19:01:32;11.15;;;6.47;;
51174;SDS011;37240;50.104;20.010;2024-03-06T19:06:32;10.02;;;7.03;;
51174;SDS011;37240;50.104;20.010;2024-03-06T19:11:33;16.00;;;7.68;;
51174;SDS011;37240;50.104;20.010;2024-03-06T19:16:33;15.40;;;7.95;;
51174;SDS011;37240;50.104;20.010;2024-03-06T19:21:34;15.38;;;7.40;;
51174;SDS011;37240;50.104;20.010;2024-03-06T19:26:35;15.38;;;8.23;;
51174;SDS011;37240;50.104;20.010;2024-03-06T19:31:35;19.52;;;9.27;;
51174;SDS011;37240;50.104;20.010;2024-03-06T19:36:36;37.78;;;17.77;;
51174;SDS011;37240;50.104;20.010;2024-03-06T19:41:36;19.48;;;10.13;;
51174;SDS011;37240;50.104;20.010;2024-03-06T19:46:38;18.27;;;9.75;;
51174;SDS011;37240;50.104;20.010;2024-03-06T19:51:41;20.67;;;10.30;;
51174;SDS011;37240;50.104;20.010;2024-03-06T19:56:42;18.80;;;10.15;;
51174;SDS011;37240;50.104;20.010;2024-03-06T20:01:43;21.73;;;11.02;;
51174;SDS011;37240;50.104;20.010;2024-03-06T20:06:43;29.55;;;13.77;;
51174;SDS011;37240;50.104;20.010;2024-03-06T20:11:44;19.17;;;10.27;;
51174;SDS011;37240;50.104;20.010;2024-03-06T20:16:44;14.68;;;8.60;;
51174;SDS011;37240;50.104;20.010;2024-03-06T20:21:45;19.73;;;10.15;;
51174;SDS011;37240;50.104;20.010;2024-03-06T20:26:45;16.05;;;8.93;;
51174;SDS011;37240;50.104;20.010;2024-03-06T20:31:46;16.25;;;9.50;;
51174;SDS011;37240;50.104;20.010;2024-03-06T20:36:47;18.95;;;9.85;;
51174;SDS011;37240;50.104;20.010;2024-03-06T20:41:47;16.30;;;8.10;;
51174;SDS011;37240;50.104;20.010;2024-03-06T20:46:48;19.13;;;9.63;;
51174;SDS011;37240;50.104;20.010;2024-03-06T20:51:49;24.33;;;11.00;;
51174;SDS011;37240;50.104;20.010;2024-03-06T20:56:49;20.70;;;11.13;;
51174;SDS011;37240;50.104;20.010;2024-03-06T21:01:50;16.95;;;10.32;;
51174;SDS011;37240;50.104;20.010;2024-03-06T21:06:50;24.95;;;12.38;;
51174;SDS011;37240;50.104;20.010;2024-03-06T21:11:51;22.27;;;12.10;;
51174;SDS011;37240;50.104;20.010;2024-03-06T21:16:51;26.90;;;12.48;;
51174;SDS011;37240;50.104;20.010;2024-03-06T21:21:52;30.00;;;14.75;;
51174;SDS011;37240;50.104;20.010;2024-03-06T21:26:53;24.70;;;13.52;;
51174;SDS011;37240;50.104;20.010;2024-03-06T21:31:53;32.15;;;12.30;;
51174;SDS011;37240;50.104;20.010;2024-03-06T21:36:54;30.75;;;13.85;;
51174;SDS011;37240;50.104;20.010;2024-03-06T21:41:54;25.40;;;12.80;;
51174;SDS011;37240;50.104;20.010;2024-03-06T21:46:55;29.92;;;13.52;;
51174;SDS011;37240;50.104;20.010;2024-03-06T21:51:55;28.38;;;12.88;;
51174;SDS011;37240;50.104;20.010;2024-03-06T21:56:56;28.83;;;13.73;;
51174;SDS011;37240;50.104;20.010;2024-03-06T22:01:57;40.20;;;15.35;;
51174;SDS011;37240;50.104;20.010;2024-03-06T22:06:57;35.05;;;14.90;;
51174;SDS011;37240;50.104;20.010;2024-03-06T22:11:58;31.77;;;15.02;;
51174;SDS011;37240;50.104;20.010;2024-03-06T22:17:00;36.70;;;15.10;;
51174;SDS011;37240;50.104;20.010;2024-03-06T22:22:01;36.70;;;17.05;;
51174;SDS011;37240;50.104;20.010;2024-03-06T22:27:02;37.85;;;15.93;;
51174;SDS011;37240;50.104;20.010;2024-03-06T22:32:02;42.65;;;16.33;;
51174;SDS011;37240;50.104;20.010;2024-03-06T22:37:03;41.95;;;17.95;;
51174;SDS011;37240;50.104;20.010;2024-03-06T22:42:04;54.65;;;20.13;;
51174;SDS011;37240;50.104;20.010;2024-03-06T22:47:04;52.47;;;17.98;;
51174;SDS011;37240;50.104;20.010;2024-03-06T22:52:05;43.70;;;18.48;;
51174;SDS011;37240;50.104;20.010;2024-03-06T22:57:06;53.45;;;21.15;;
51174;SDS011;37240;50.104;20.010;2024-03-06T23:02:06;56.75;;;20.25;;
51174;SDS011;37240;50.104;20.010;2024-03-06T23:07:07;57.05;;;22.30;;
51174;SDS011;37240;50.104;20.010;2024-03-06T23:12:07;55.50;;;20.45;;
51174;SDS011;37240;50.104;20.010;2024-03-06T23:17:08;50.95;;;20.58;;
51174;SDS011;37240;50.104;20.010;2024-03-06T23:22:08;56.30;;;21.48;;
51174;SDS011;37240;50.104;20.010;2024-03-06T23:27:09;52.35;;;20.73;;
51174;SDS011;37240;50.104;20.010;2024-03-06T23:32:10;51.38;;;21.38;;
51174;SDS011;37240;50.104;20.010;2024-03-06T23:37:10;66.80;;;23.40;;
51174;SDS011;37240;50.104;20.010;2024-03-06T23:42:11;53.92;;;20.98;;
51174;SDS011;37240;50.104;20.010;2024-03-06T23:47:11;55.05;;;21.10;;
51174;SDS011;37240;50.104;20.010;2024-03-06T23:52:12;57.53;;;21.05;;
51174;SDS011;37240;50.104;20.010;2024-03-06T23:57:13;60.90;;;22.70;;
